Time;durP1;ratioP1;P1;durP2;ratioP2;P2;SDS_P1;SDS_P2;PMS_P1;PMS_P2;Temp;Humidity;BMP_temperature;BMP_pressure;BME280_temperature;BME280_humidity;BME280_pressure;Samples;Min_cycle;Max_cycle;Signal;HPM_P1;HPM_P2
2022/04/21 00:00:35;;;;;;;0.10;0.10;;;10.50;84.00;;;;;;4943889;28;20419;-72
2022/04/21 00:03:02;;;;;;;0.10;0.10;;;10.40;85.90;;;;;;4944744;28;20462;-73
2022/04/21 00:05:28;;;;;;;0.10;0.10;;;10.40;88.40;;;;;;4947066;28;20094;-73
2022/04/21 00:07:54;;;;;;;0.10;0.10;;;10.40;90.00;;;;;;4944937;28;20111;-73
2022/04/21 00:10:20;;;;;;;0.13;0.13;;;10.40;90.50;;;;;;4941293;28;20015;-73
2022/04/21 00:12:46;;;;;;;0.10;0.10;;;10.40;91.50;;;;;;4944263;28;20042;-71
2022/04/21 00:15:12;;;;;;;0.10;0.10;;;10.40;93.00;;;;;;4951713;28;20030;-72
2022/04/21 00:17:38;;;;;;;0.10;0.10;;;10.30;94.10;;;;;;4946390;28;20030;-72
2022/04/21 00:20:05;;;;;;;0.10;0.10;;;10.30;95.40;;;;;;4955652;28;20050;-72
2022/04/21 00:25:15;;;;;;;0.10;0.10;;;10.30;98.70;;;;;;4941218;28;20043;-73
2022/04/21 00:27:43;;;;;;;0.63;0.63;;;10.30;99.90;;;;;;4943887;28;20023;-73
2022/04/21 00:30:10;;;;;;;0.10;0.10;;;10.30;99.90;;;;;;4940082;28;20027;-73
2022/04/21 00:32:37;;;;;;;0.10;0.10;;;10.30;99.90;;;;;;4943899;28;20032;-73
2022/04/21 00:35:04;;;;;;;0.10;0.10;;;10.20;99.90;;;;;;4945168;28;20058;-73
2022/04/21 00:37:30;;;;;;;0.25;0.25;;;10.10;99.90;;;;;;4953098;28;20035;-73
2022/04/21 00:39:56;;;;;;;0.68;0.68;;;10.10;99.90;;;;;;4953224;28;20039;-73
2022/04/21 00:42:22;;;;;;;0.10;0.10;;;10.10;99.90;;;;;;4946486;28;20047;-71
2022/04/21 00:44:50;;;;;;;0.10;0.10;;;10.10;99.90;;;;;;4942267;28;20035;-73
2022/04/21 00:47:20;;;;;;;0.10;0.10;;;10.00;99.90;;;;;;4946839;28;20131;-72
2022/04/21 00:49:47;;;;;;;0.10;0.10;;;10.00;99.90;;;;;;4951063;28;20114;-72
2022/04/21 00:52:15;;;;;;;0.10;0.10;;;10.00;99.90;;;;;;4953033;28;20063;-74
2022/04/21 00:54:42;;;;;;;0.10;0.10;;;10.00;99.90;;;;;;4950430;28;20019;-73
2022/04/21 00:57:08;;;;;;;0.10;0.10;;;10.00;99.90;;;;;;4950933;28;20026;-72
2022/04/21 00:59:34;;;;;;;0.10;0.10;;;10.00;99.90;;;;;;4959815;28;20026;-73
2022/04/21 01:05:00;;;;;;;0.10;0.10;;;9.90;99.90;;;;;;4941436;28;20047;-72
2022/04/21 01:07:26;;;;;;;0.10;0.10;;;9.90;99.90;;;;;;4948783;28;20026;-76
2022/04/21 01:09:55;;;;;;;0.63;0.57;;;9.80;99.90;;;;;;4949295;28;20023;-72
2022/04/21 01:12:20;;;;;;;0.10;0.10;;;9.80;99.90;;;;;;4949666;28;20019;-73
2022/04/21 01:14:46;;;;;;;0.10;0.10;;;9.80;99.90;;;;;;4950881;28;20181;-73
2022/04/21 01:17:12;;;;;;;0.10;0.10;;;9.80;99.90;;;;;;4958053;28;20530;-73
2022/04/21 01:19:38;;;;;;;0.10;0.10;;;9.70;99.90;;;;;;4955231;28;20506;-74
2022/04/21 01:22:04;;;;;;;0.10;0.10;;;9.70;99.90;;;;;;4946080;28;20082;-74
2022/04/21 01:24:30;;;;;;;0.10;0.10;;;9.70;99.90;;;;;;4945604;28;20043;-74
2022/04/21 01:26:57;;;;;;;0.20;0.20;;;9.70;99.90;;;;;;4945651;28;20094;-73
2022/04/21 01:29:24;;;;;;;0.10;0.10;;;9.70;99.90;;;;;;4947409;28;20143;-74
2022/04/21 01:31:49;;;;;;;0.10;0.10;;;9.60;99.90;;;;;;4950420;28;20098;-75
2022/04/21 01:34:16;;;;;;;0.10;0.10;;;9.60;99.90;;;;;;4941106;28;20424;-74
2022/04/21 01:42:14;;;;;;;0.10;0.10;;;9.50;99.90;;;;;;4945380;28;20557;-73
2022/04/21 01:44:41;;;;;;;0.10;0.10;;;9.40;99.90;;;;;;4945464;28;20043;-76
2022/04/21 01:47:07;;;;;;;0.10;0.10;;;9.60;99.90;;;;;;4944340;28;20085;-73
2022/04/21 01:49:32;;;;;;;0.30;0.30;;;9.30;99.90;;;;;;4951897;28;20023;-72
2022/04/21 01:51:58;;;;;;;0.10;0.10;;;9.30;99.90;;;;;;4945344;28;20039;-72
2022/04/21 01:54:23;;;;;;;0.10;0.10;;;9.30;99.90;;;;;;4946933;28;20031;-72
2022/04/21 01:56:49;;;;;;;0.10;0.10;;;9.30;99.90;;;;;;4946311;28;20038;-72
2022/04/21 01:59:15;;;;;;;0.10;0.10;;;9.20;99.90;;;;;;4952531;28;20541;-73
2022/04/21 02:01:40;;;;;;;0.10;0.10;;;9.20;99.90;;;;;;4947567;28;20027;-73
2022/04/21 02:04:06;;;;;;;0.10;0.10;;;9.10;99.90;;;;;;4944278;28;20035;-72
2022/04/21 02:06:31;;;;;;;0.47;0.47;;;9.10;99.90;;;;;;4942689;28;20395;-73
2022/04/21 02:08:58;;;;;;;0.22;0.22;;;9.10;99.90;;;;;;4941771;28;20032;-73
2022/04/21 02:11:24;;;;;;;0.43;0.43;;;9.10;99.90;;;;;;4957950;28;20102;-73
2022/04/21 02:13:50;;;;;;;0.10;0.10;;;9.00;99.90;;;;;;4958976;28;20030;-74
2022/04/21 02:16:16;;;;;;;0.68;0.68;;;9.00;99.90;;;;;;4955008;28;20034;-73
2022/04/21 02:18:41;;;;;;;0.20;0.20;;;9.00;99.90;;;;;;4950119;28;20023;-73
2022/04/21 02:21:07;;;;;;;0.10;0.10;;;9.00;99.90;;;;;;4947296;28;20406;-73
2022/04/21 02:23:33;;;;;;;0.10;0.10;;;9.00;99.90;;;;;;4950949;28;20042;-73
2022/04/21 02:25:58;;;;;;;0.10;0.10;;;9.00;99.90;;;;;;4949874;28;20027;-75
2022/04/21 02:28:25;;;;;;;0.50;0.50;;;9.00;99.90;;;;;;4940519;28;20513;-74
2022/04/21 02:30:51;;;;;;;0.10;0.10;;;9.00;99.90;;;;;;4947542;28;20044;-74
2022/04/21 02:33:16;;;;;;;0.20;0.20;;;9.00;99.90;;;;;;4956710;28;20114;-73
2022/04/21 02:35:43;;;;;;;0.10;0.10;;;9.00;99.90;;;;;;4948459;28;20042;-73
2022/04/21 02:38:08;;;;;;;0.10;0.10;;;8.90;99.90;;;;;;4947480;28;20027;-74
2022/04/21 02:40:34;;;;;;;0.10;0.10;;;8.90;99.90;;;;;;4947703;28;20031;-73
2022/04/21 02:43:00;;;;;;;0.30;0.30;;;8.90;99.90;;;;;;4956578;28;20039;-73
2022/04/21 02:45:25;;;;;;;0.10;0.10;;;8.90;99.90;;;;;;4945862;28;20027;-74
2022/04/21 02:47:51;;;;;;;0.10;0.10;;;8.90;99.90;;;;;;4950027;28;20028;-74
2022/04/21 02:50:18;;;;;;;0.10;0.10;;;8.90;99.90;;;;;;4951151;28;20788;-74
2022/04/21 02:52:44;;;;;;;0.10;0.10;;;8.80;99.90;;;;;;4940903;28;20030;-73
2022/04/21 02:58:01;;;;;;;0.10;0.10;;;8.70;99.90;;;;;;4947974;28;20103;-73
2022/04/21 03:00:27;;;;;;;0.10;0.10;;;8.80;99.90;;;;;;4947767;28;20027;-73
2022/04/21 03:02:53;;;;;;;1.25;0.85;;;8.70;99.90;;;;;;4949724;28;20133;-74
2022/04/21 03:05:18;;;;;;;0.10;0.10;;;8.70;99.90;;;;;;4945677;28;20503;-72
2022/04/21 03:07:44;;;;;;;0.10;0.10;;;8.70;99.90;;;;;;4949033;28;20031;-74
2022/04/21 03:10:10;;;;;;;0.15;0.15;;;8.70;99.90;;;;;;4950950;28;20035;-73
2022/04/21 03:12:36;;;;;;;0.52;0.52;;;8.70;99.90;;;;;;4936908;28;20031;-74
2022/04/21 03:15:02;;;;;;;1.65;1.55;;;8.60;99.90;;;;;;4945727;28;20031;-73
2022/04/21 03:17:29;;;;;;;0.10;0.10;;;8.60;99.90;;;;;;4953463;28;20030;-74
2022/04/21 03:19:54;;;;;;;0.68;0.68;;;8.50;99.90;;;;;;4945486;28;20031;-73
2022/04/21 03:25:06;;;;;;;0.10;0.10;;;8.50;99.90;;;;;;4951425;28;20082;-73
2022/04/21 03:27:32;;;;;;;0.10;0.10;;;8.40;99.90;;;;;;4939665;28;20026;-73
2022/04/21 03:30:01;;;;;;;0.22;0.22;;;8.40;99.90;;;;;;4945975;28;20039;-72
2022/04/21 03:32:27;;;;;;;0.10;0.10;;;8.70;99.90;;;;;;4940383;28;20070;-74
2022/04/21 03:34:56;;;;;;;0.88;0.82;;;8.30;99.90;;;;;;4948141;28;20031;-72
2022/04/21 03:37:22;;;;;;;0.20;0.20;;;8.30;99.90;;;;;;4945337;28;20146;-72
2022/04/21 03:39:48;;;;;;;0.30;0.30;;;8.30;99.90;;;;;;4946631;28;20140;-73
2022/04/21 03:42:23;;;;;;;1.25;0.65;;;8.20;99.90;;;;;;4944547;28;20396;-72
2022/04/21 03:44:49;;;;;;;1.23;1.23;;;8.30;99.90;;;;;;4946103;28;20046;-75
2022/04/21 03:47:15;;;;;;;0.10;0.10;;;8.30;99.90;;;;;;4952114;28;20027;-73
2022/04/21 03:49:41;;;;;;;0.10;0.10;;;8.30;99.90;;;;;;4948295;28;20019;-73
2022/04/21 03:52:06;;;;;;;0.10;0.10;;;8.30;99.90;;;;;;4950412;28;20057;-73
2022/04/21 03:54:32;;;;;;;0.10;0.10;;;8.30;99.90;;;;;;4958363;28;20476;-73
2022/04/21 03:56:58;;;;;;;0.75;0.47;;;8.30;99.90;;;;;;4946359;28;20039;-72
2022/04/21 03:59:23;;;;;;;1.13;1.13;;;8.20;99.90;;;;;;4947150;28;20026;-72
2022/04/21 04:01:52;;;;;;;0.10;0.10;;;8.30;99.90;;;;;;4945174;28;20040;-74
2022/04/21 04:04:18;;;;;;;0.10;0.10;;;8.20;99.90;;;;;;4949120;28;20043;-73
2022/04/21 04:12:13;;;;;;;0.10;0.10;;;8.00;99.90;;;;;;4950333;28;20039;-73
2022/04/21 04:14:39;;;;;;;0.20;0.20;;;8.00;99.90;;;;;;4947427;28;20028;-75
2022/04/21 04:17:06;;;;;;;0.10;0.10;;;8.00;99.90;;;;;;4950474;28;20063;-74
2022/04/21 04:19:33;;;;;;;0.10;0.10;;;8.00;99.90;;;;;;4944161;28;20095;-74
2022/04/21 04:21:59;;;;;;;1.75;1.33;;;8.00;99.90;;;;;;4949204;28;20034;-73
2022/04/21 04:24:24;;;;;;;0.10;0.10;;;8.00;99.90;;;;;;4956177;28;20022;-73
2022/04/21 04:26:50;;;;;;;0.10;0.10;;;8.00;99.90;;;;;;4946249;28;20035;-75
2022/04/21 04:29:22;;;;;;;0.77;0.77;;;8.00;99.90;;;;;;4944081;28;20051;-74
2022/04/21 04:31:49;;;;;;;0.10;0.10;;;8.00;99.90;;;;;;4945847;28;20118;-74
2022/04/21 04:34:15;;;;;;;0.10;0.10;;;8.10;99.90;;;;;;4953223;28;20027;-74
2022/04/21 04:36:41;;;;;;;0.10;0.10;;;8.00;99.90;;;;;;4943152;28;20035;-73
2022/04/21 04:39:07;;;;;;;0.20;0.20;;;8.10;99.90;;;;;;4949790;28;20031;-73
2022/04/21 04:44:17;;;;;;;0.10;0.10;;;8.00;99.90;;;;;;4949809;28;20077;-73
2022/04/21 04:46:43;;;;;;;0.13;0.13;;;8.10;99.90;;;;;;4953235;28;20043;-74
2022/04/21 04:49:10;;;;;;;0.10;0.10;;;8.10;99.90;;;;;;4952666;28;20023;-73
2022/04/21 04:51:40;;;;;;;0.10;0.10;;;8.10;99.90;;;;;;4950940;28;20495;-73
2022/04/21 04:54:06;;;;;;;0.10;0.10;;;8.10;99.90;;;;;;4954187;28;20773;-73
2022/04/21 04:56:36;;;;;;;0.10;0.10;;;8.10;99.90;;;;;;4951340;28;20055;-74
2022/04/21 04:59:03;;;;;;;0.10;0.10;;;8.10;99.90;;;;;;4952537;28;20027;-74
2022/04/21 05:01:40;;;;;;;0.10;0.10;;;8.10;99.90;;;;;;4952344;28;20061;-75
2022/04/21 05:06:43;;;;;;;;;;;8.00;99.90;;;;;;4965342;28;20059;-72
2022/04/21 05:09:11;;;;;;;0.20;0.20;;;8.00;99.90;;;;;;4972658;28;19965;-73
2022/04/21 05:11:38;;;;;;;0.20;0.20;;;8.00;99.90;;;;;;4969859;28;20117;-74
2022/04/21 05:14:04;;;;;;;0.10;0.10;;;8.00;99.90;;;;;;4972532;28;20029;-72
2022/04/21 05:16:30;;;;;;;0.10;0.10;;;8.10;99.90;;;;;;4952687;28;20019;-74
2022/04/21 05:18:56;;;;;;;0.10;0.10;;;8.00;99.90;;;;;;4952394;29;20461;-74
2022/04/21 05:21:23;;;;;;;0.82;0.82;;;8.00;99.90;;;;;;4949399;29;20487;-73
2022/04/21 05:23:51;;;;;;;0.38;0.38;;;8.00;99.90;;;;;;4953752;28;20138;-74
2022/04/21 05:26:17;;;;;;;0.10;0.10;;;8.10;99.90;;;;;;4950592;28;20094;-72
2022/04/21 05:28:44;;;;;;;0.20;0.20;;;8.00;99.90;;;;;;4962011;28;20031;-74
2022/04/21 05:31:10;;;;;;;0.10;0.10;;;8.00;99.90;;;;;;4946017;29;20026;-74
2022/04/21 05:33:37;;;;;;;0.20;0.20;;;8.10;99.90;;;;;;4951448;28;20151;-73
2022/04/21 05:36:05;;;;;;;0.10;0.10;;;8.10;99.90;;;;;;4948623;29;20040;-72
2022/04/21 05:38:31;;;;;;;0.10;0.10;;;8.20;99.90;;;;;;4943988;29;20460;-72
2022/04/21 05:40:57;;;;;;;0.10;0.10;;;8.20;99.90;;;;;;4949078;29;20046;-73
2022/04/21 05:43:43;;;;;;;0.57;0.57;;;8.30;99.90;;;;;;4950933;29;20050;-74
2022/04/21 05:46:14;;;;;;;0.10;0.10;;;8.30;99.90;;;;;;4942814;29;20090;-73
2022/04/21 05:48:41;;;;;;;0.10;0.10;;;8.40;99.90;;;;;;4952696;29;20082;-74
2022/04/21 05:51:09;;;;;;;0.35;0.35;;;8.30;99.90;;;;;;4947341;28;20133;-72
2022/04/21 05:53:36;;;;;;;0.10;0.10;;;8.30;99.90;;;;;;4952909;28;20046;-73
2022/04/21 05:56:07;;;;;;;0.40;0.40;;;8.30;99.90;;;;;;4948016;28;20471;-74
2022/04/21 05:58:36;;;;;;;0.10;0.10;;;8.40;99.90;;;;;;4949301;29;20073;-74
2022/04/21 06:01:05;;;;;;;0.10;0.10;;;8.40;99.90;;;;;;4953079;28;20023;-72
2022/04/21 06:03:31;;;;;;;0.10;0.10;;;8.60;99.90;;;;;;4953490;29;20034;-72
2022/04/21 06:05:56;;;;;;;0.20;0.20;;;8.50;99.90;;;;;;4948213;28;20031;-74
2022/04/21 06:08:23;;;;;;;0.10;0.10;;;8.50;99.90;;;;;;4942299;29;20035;-73
2022/04/21 06:10:48;;;;;;;0.10;0.10;;;8.60;99.90;;;;;;4940792;29;20024;-73
2022/04/21 06:13:15;;;;;;;0.10;0.10;;;8.60;99.90;;;;;;4950590;29;20023;-72
2022/04/21 06:15:42;;;;;;;0.10;0.10;;;8.60;99.90;;;;;;4942654;28;20024;-74
2022/04/21 06:18:08;;;;;;;0.10;0.10;;;8.60;99.90;;;;;;4951914;29;20038;-72
2022/04/21 06:20:35;;;;;;;0.22;0.22;;;8.70;99.90;;;;;;4949769;28;20396;-73
2022/04/21 06:23:01;;;;;;;0.10;0.10;;;8.90;99.90;;;;;;4945881;28;20032;-73
2022/04/21 06:25:26;;;;;;;0.20;0.20;;;8.90;99.90;;;;;;4944467;29;20031;-73
2022/04/21 06:27:52;;;;;;;0.10;0.10;;;8.90;99.90;;;;;;4945123;29;20043;-73
2022/04/21 06:30:19;;;;;;;0.10;0.10;;;9.00;99.90;;;;;;4951041;29;20054;-74
2022/04/21 06:32:45;;;;;;;0.10;0.10;;;9.00;99.90;;;;;;4944808;28;20038;-73
2022/04/21 06:35:11;;;;;;;0.10;0.10;;;9.10;99.90;;;;;;4958241;28;20463;-73
2022/04/21 06:37:37;;;;;;;0.10;0.10;;;9.30;99.90;;;;;;4940464;28;20174;-76
2022/04/21 06:40:03;;;;;;;0.10;0.10;;;9.40;99.90;;;;;;4952550;28;20027;-73
2022/04/21 06:42:29;;;;;;;0.10;0.10;;;9.40;99.90;;;;;;4957189;28;20082;-73
2022/04/21 06:50:23;;;;;;;0.10;0.10;;;9.60;99.90;;;;;;4943337;28;20039;-72
2022/04/21 06:52:49;;;;;;;0.17;0.17;;;9.70;99.90;;;;;;4951317;28;20027;-74
2022/04/21 06:55:15;;;;;;;0.10;0.10;;;9.60;99.90;;;;;;4953145;29;20023;-73
2022/04/21 06:57:40;;;;;;;0.10;0.10;;;9.60;99.90;;;;;;4944174;29;20031;-73
2022/04/21 07:00:07;;;;;;;0.40;0.40;;;9.70;99.90;;;;;;4955591;28;20443;-75
2022/04/21 07:02:32;;;;;;;0.10;0.10;;;9.90;99.90;;;;;;4955641;28;20539;-74
2022/04/21 07:05:05;;;;;;;0.10;0.10;;;10.00;99.90;;;;;;4950927;28;20034;-75
2022/04/21 07:07:32;;;;;;;0.10;0.10;;;10.00;99.90;;;;;;4946758;28;20031;-74
2022/04/21 07:09:58;;;;;;;0.10;0.10;;;10.20;99.90;;;;;;4956324;28;20043;-76
2022/04/21 07:12:30;;;;;;;0.00;0.00;;;10.40;99.90;;;;;;4941339;28;20038;-76
2022/04/21 07:14:57;;;;;;;0.10;0.10;;;10.40;99.90;;;;;;4950074;29;20027;-76
2022/04/21 07:17:23;;;;;;;0.10;0.10;;;10.50;99.90;;;;;;4948029;28;20050;-75
2022/04/21 07:19:49;;;;;;;0.75;0.75;;;10.60;99.90;;;;;;4955707;28;20023;-78
2022/04/21 07:22:15;;;;;;;0.20;0.20;;;10.70;99.90;;;;;;4958915;28;20031;-75
2022/04/21 07:24:41;;;;;;;0.47;0.47;;;10.80;99.90;;;;;;4948220;29;20051;-79
2022/04/21 07:27:07;;;;;;;0.10;0.10;;;10.60;99.90;;;;;;4949104;29;20032;-76
2022/04/21 07:29:34;;;;;;;0.10;0.10;;;10.90;99.90;;;;;;4953025;29;20036;-80
2022/04/21 07:32:00;;;;;;;0.10;0.10;;;11.00;99.90;;;;;;4951413;28;20059;-76
2022/04/21 07:34:26;;;;;;;0.10;0.10;;;11.00;99.90;;;;;;4967940;28;20476;-76
2022/04/21 07:36:51;;;;;;;0.10;0.10;;;11.10;99.90;;;;;;4941056;29;20507;-76
2022/04/21 07:39:18;;;;;;;0.10;0.10;;;11.00;99.90;;;;;;4946973;29;20055;-76
2022/04/21 07:41:45;;;;;;;0.10;0.10;;;11.10;99.90;;;;;;4938206;29;20495;-76
2022/04/21 07:44:11;;;;;;;0.10;0.10;;;11.20;99.90;;;;;;4953854;29;20027;-75
2022/04/21 07:46:36;;;;;;;0.10;0.10;;;11.50;99.90;;;;;;4949706;28;20030;-75
2022/04/21 07:51:47;;;;;;;0.17;0.17;;;11.40;99.90;;;;;;4937681;28;20038;-72
2022/04/21 07:54:13;;;;;;;0.10;0.10;;;11.30;99.90;;;;;;4951320;29;20031;-72
2022/04/21 07:56:39;;;;;;;0.10;0.10;;;11.30;99.90;;;;;;4953120;28;20038;-69
2022/04/21 07:59:05;;;;;;;0.10;0.10;;;11.50;99.90;;;;;;4952787;28;20032;-70
2022/04/21 08:01:31;;;;;;;0.10;0.10;;;11.60;99.90;;;;;;4956339;28;20299;-72
2022/04/21 08:04:02;;;;;;;0.10;0.10;;;11.70;99.90;;;;;;4954656;28;20035;-72
2022/04/21 08:06:28;;;;;;;0.10;0.10;;;11.70;99.90;;;;;;4952886;28;20050;-70
2022/04/21 08:08:55;;;;;;;0.10;0.10;;;11.80;99.90;;;;;;4952931;28;20053;-70
2022/04/21 08:11:21;;;;;;;0.10;0.10;;;11.80;99.90;;;;;;4954645;28;20079;-72
2022/04/21 08:13:47;;;;;;;0.10;0.10;;;11.80;99.90;;;;;;4948421;28;20078;-73
2022/04/21 08:16:13;;;;;;;0.10;0.10;;;11.80;99.90;;;;;;4954870;28;20107;-72
2022/04/21 08:18:38;;;;;;;0.13;0.13;;;11.90;99.90;;;;;;4971929;28;20122;-73
2022/04/21 08:21:05;;;;;;;0.20;0.20;;;12.10;99.90;;;;;;4944283;28;20047;-71
2022/04/21 08:23:36;;;;;;;0.10;0.10;;;12.10;99.90;;;;;;4950511;28;20023;-72
2022/04/21 08:34:04;;;;;;;0.20;0.20;;;12.10;99.90;;;;;;4945711;28;20518;-72
2022/04/21 08:36:30;;;;;;;0.10;0.10;;;12.20;99.90;;;;;;4954228;29;20063;-72
2022/04/21 08:38:56;;;;;;;0.10;0.10;;;12.30;99.90;;;;;;4951364;29;20033;-72
2022/04/21 08:41:26;;;;;;;0.10;0.10;;;12.50;99.90;;;;;;4948238;29;20110;-72
2022/04/21 08:43:56;;;;;;;0.20;0.20;;;12.60;99.90;;;;;;4947582;29;20118;-72
2022/04/21 08:46:25;;;;;;;0.10;0.10;;;12.40;99.90;;;;;;4951303;29;20026;-71
2022/04/21 08:48:51;;;;;;;0.10;0.10;;;12.50;99.90;;;;;;4944973;28;20023;-73
2022/04/21 08:51:19;;;;;;;0.10;0.10;;;12.70;99.90;;;;;;4940912;28;20505;-73
2022/04/21 08:53:45;;;;;;;0.10;0.10;;;12.90;99.90;;;;;;4944384;28;20023;-72
2022/04/21 08:56:12;;;;;;;0.57;0.57;;;13.10;99.90;;;;;;4953508;28;20024;-73
2022/04/21 08:58:38;;;;;;;0.10;0.10;;;13.20;99.90;;;;;;4943643;28;20496;-74
2022/04/21 09:01:03;;;;;;;0.38;0.38;;;13.30;99.90;;;;;;4949104;28;20031;-73
2022/04/21 09:03:33;;;;;;;0.10;0.10;;;13.30;99.90;;;;;;4944959;28;20047;-74
2022/04/21 09:06:00;;;;;;;0.10;0.10;;;13.40;99.90;;;;;;4941414;28;20500;-73
2022/04/21 09:08:28;;;;;;;0.10;0.10;;;13.40;99.90;;;;;;4947362;28;20032;-72
2022/04/21 09:11:12;;;;;;;0.75;0.75;;;13.50;99.90;;;;;;4946756;29;20028;-73
2022/04/21 09:13:42;;;;;;;0.10;0.10;;;13.60;99.90;;;;;;4940513;29;20475;-73
2022/04/21 09:16:15;;;;;;;0.10;0.10;;;13.70;99.90;;;;;;4944018;29;20394;-72
2022/04/21 09:18:44;;;;;;;0.10;0.10;;;13.80;99.90;;;;;;4950559;29;20035;-71
2022/04/21 09:21:15;;;;;;;0.65;0.65;;;13.80;99.80;;;;;;4948731;29;20158;-73
2022/04/21 09:23:42;;;;;;;0.10;0.10;;;13.80;99.70;;;;;;4938405;29;20027;-72
2022/04/21 09:26:15;;;;;;;0.10;0.10;;;14.00;99.00;;;;;;4949804;29;20024;-71
2022/04/21 09:28:42;;;;;;;0.10;0.10;;;14.20;98.30;;;;;;4951938;28;20114;-72
2022/04/21 09:31:09;;;;;;;0.10;0.10;;;14.30;97.30;;;;;;4950827;28;20495;-72
2022/04/21 09:33:44;;;;;;;0.25;0.25;;;14.20;96.80;;;;;;4949893;28;20531;-74
2022/04/21 09:36:11;;;;;;;0.10;0.10;;;14.00;97.40;;;;;;4946158;28;20058;-71
2022/04/21 09:38:37;;;;;;;0.10;0.10;;;14.10;99.30;;;;;;4953518;29;20035;-75
2022/04/21 09:41:07;;;;;;;0.10;0.10;;;14.20;97.50;;;;;;4937884;28;20035;-72
2022/04/21 09:43:35;;;;;;;0.10;0.10;;;14.30;97.00;;;;;;4946768;28;20026;-73
2022/04/21 09:46:21;;;;;;;0.10;0.10;;;14.50;96.70;;;;;;4952592;29;20031;-72
2022/04/21 09:48:52;;;;;;;0.10;0.10;;;14.50;95.50;;;;;;4944552;28;20028;-75
2022/04/21 09:51:29;;;;;;;0.10;0.10;;;14.60;94.10;;;;;;4950097;28;20037;-73
2022/04/21 09:54:05;;;;;;;0.10;0.10;;;14.80;93.30;;;;;;4945813;28;20036;-73
2022/04/21 09:56:35;;;;;;;0.10;0.10;;;14.90;93.10;;;;;;4943251;29;20033;-73
2022/04/21 09:59:03;;;;;;;0.10;0.10;;;15.00;91.70;;;;;;4948521;29;20063;-70
2022/04/21 10:01:29;;;;;;;0.10;0.10;;;15.10;91.20;;;;;;4945273;28;20081;-71
2022/04/21 10:03:55;;;;;;;0.10;0.10;;;15.30;91.00;;;;;;4951589;28;20035;-71
2022/04/21 10:06:22;;;;;;;0.10;0.10;;;15.30;90.40;;;;;;4948138;28;20118;-70
2022/04/21 10:08:51;;;;;;;0.10;0.10;;;15.40;90.00;;;;;;4941864;28;20067;-70
2022/04/21 10:11:25;;;;;;;0.10;0.10;;;15.30;88.20;;;;;;4948394;29;20015;-71
2022/04/21 10:13:55;;;;;;;0.10;0.10;;;15.10;88.50;;;;;;4947781;28;20372;-72
2022/04/21 10:16:22;;;;;;;0.10;0.10;;;15.20;89.00;;;;;;4945651;29;20059;-71
2022/04/21 10:18:50;;;;;;;0.10;0.10;;;15.40;89.10;;;;;;4950036;28;20098;-72
2022/04/21 10:21:36;;;;;;;0.20;0.20;;;15.50;88.50;;;;;;4947283;28;20023;-72
2022/04/21 10:24:02;;;;;;;0.10;0.10;;;15.50;88.20;;;;;;4949986;28;20114;-71
2022/04/21 10:26:39;;;;;;;0.20;0.20;;;15.50;87.20;;;;;;4951243;28;20452;-71
2022/04/21 10:29:12;;;;;;;0.10;0.10;;;15.50;86.50;;;;;;4946937;28;20038;-73
2022/04/21 10:31:59;;;;;;;0.10;0.10;;;15.50;87.80;;;;;;4947699;29;20035;-74
2022/04/21 10:34:41;;;;;;;0.10;0.10;;;15.50;86.60;;;;;;4943133;29;20039;-71
2022/04/21 10:37:15;;;;;;;0.10;0.10;;;15.50;87.00;;;;;;4944374;29;20020;-70
2022/04/21 10:40:10;;;;;;;0.10;0.10;;;15.40;87.10;;;;;;4945983;28;20051;-71
2022/04/21 10:42:58;;;;;;;0.82;0.82;;;15.30;88.30;;;;;;4945412;28;20039;-70
2022/04/21 10:45:28;;;;;;;0.10;0.10;;;15.10;88.40;;;;;;4943470;29;20054;-72
2022/04/21 10:48:14;;;;;;;0.10;0.10;;;15.10;88.80;;;;;;4945358;29;20054;-73
2022/04/21 10:50:45;;;;;;;0.10;0.10;;;15.20;88.70;;;;;;4945025;29;20055;-71
2022/04/21 10:58:47;;;;;;;0.10;0.10;;;15.80;88.00;;;;;;4948938;29;20562;-73
2022/04/21 11:01:27;;;;;;;0.10;0.10;;;15.90;86.70;;;;;;4950472;28;20430;-72
2022/04/21 11:04:17;;;;;;;0.10;0.10;;;15.80;86.70;;;;;;4943752;28;20042;-72
2022/04/21 11:06:45;;;;;;;0.10;0.10;;;16.00;86.50;;;;;;4935067;29;20034;-71
2022/04/21 11:09:37;;;;;;;1.20;1.20;;;16.20;84.90;;;;;;4951303;29;20024;-76
2022/04/21 11:12:05;;;;;;;0.10;0.10;;;16.30;84.90;;;;;;4947985;28;20070;-74
2022/04/21 11:14:33;;;;;;;0.10;0.10;;;16.80;82.40;;;;;;4949174;28;20031;-76
2022/04/21 11:17:00;;;;;;;0.10;0.10;;;17.20;82.30;;;;;;4950493;28;20479;-75
2022/04/21 11:19:28;;;;;;;0.10;0.10;;;17.00;80.10;;;;;;4946971;29;20039;-76
2022/04/21 11:22:14;;;;;;;0.10;0.10;;;17.10;80.10;;;;;;4946628;28;20036;-79
2022/04/21 11:24:55;;;;;;;0.10;0.10;;;17.20;78.60;;;;;;4964474;28;20450;-80
2022/04/21 11:27:22;;;;;;;0.10;0.10;;;17.10;79.30;;;;;;4954921;28;20031;-77
2022/04/21 11:29:48;;;;;;;0.10;0.10;;;17.60;78.50;;;;;;4949817;28;20406;-76
2022/04/21 11:32:18;;;;;;;0.10;0.10;;;17.50;78.40;;;;;;4952966;28;20489;-76
2022/04/21 11:35:01;;;;;;;0.10;0.10;;;17.10;77.20;;;;;;4982356;28;20089;-75
2022/04/21 11:37:45;;;;;;;0.10;0.10;;;16.90;78.50;;;;;;4971304;28;20031;-75
2022/04/21 11:40:22;;;;;;;0.10;0.10;;;16.90;78.80;;;;;;4947550;29;20082;-75
2022/04/21 11:42:51;;;;;;;0.10;0.10;;;16.80;78.70;;;;;;4947714;28;20140;-77
2022/04/21 11:45:36;;;;;;;0.20;0.20;;;17.20;78.70;;;;;;4954914;29;20049;-75
2022/04/21 11:48:10;;;;;;;0.10;0.10;;;17.60;76.20;;;;;;4951464;29;20070;-78
2022/04/21 11:50:36;;;;;;;0.10;0.10;;;17.70;76.50;;;;;;4950071;28;20138;-76
2022/04/21 11:53:15;;;;;;;0.00;0.00;;;18.00;75.30;;;;;;4949103;28;20058;-75
2022/04/21 11:55:42;;;;;;;0.10;0.10;;;18.00;74.10;;;;;;4951357;28;20036;-76
2022/04/21 11:58:08;;;;;;;0.10;0.10;;;18.10;73.70;;;;;;4950470;28;20035;-75
2022/04/21 12:08:47;;;;;;;0.10;0.10;;;17.80;71.60;;;;;;4950141;29;20494;-77
2022/04/21 12:11:16;;;;;;;0.10;0.10;;;18.10;71.70;;;;;;4953543;29;20086;-76
2022/04/21 12:13:44;;;;;;;0.05;0.05;;;18.20;69.60;;;;;;4953596;28;20023;-77
2022/04/21 12:16:45;;;;;;;0.00;0.00;;;18.30;68.50;;;;;;4943513;28;20472;-77
2022/04/21 12:19:44;;;;;;;0.00;0.00;;;18.30;68.30;;;;;;4952239;29;20510;-75
2022/04/21 12:22:21;;;;;;;0.00;0.00;;;18.40;67.00;;;;;;4944187;29;20027;-74
2022/04/21 12:24:49;;;;;;;0.00;0.00;;;18.60;67.50;;;;;;4942754;29;20050;-75
2022/04/21 12:27:22;;;;;;;0.00;0.00;;;18.60;65.40;;;;;;4949523;28;20045;-74
2022/04/21 12:29:51;;;;;;;0.10;0.10;;;18.70;63.80;;;;;;4939232;28;20562;-73
2022/04/21 12:32:20;;;;;;;0.20;0.20;;;18.70;63.20;;;;;;4946558;28;20036;-73
2022/04/21 12:34:46;;;;;;;0.10;0.10;;;18.80;63.50;;;;;;4948245;28;20103;-73
2022/04/21 12:37:12;;;;;;;0.00;0.00;;;19.00;62.80;;;;;;4948634;28;20036;-74
2022/04/21 12:39:37;;;;;;;0.20;0.20;;;19.10;64.50;;;;;;4950703;28;20031;-73
2022/04/21 12:42:04;;;;;;;0.08;0.08;;;19.40;63.40;;;;;;4937783;28;20090;-74
2022/04/21 12:44:31;;;;;;;0.00;0.00;;;19.50;60.20;;;;;;4950301;28;20466;-72
2022/04/21 12:47:12;;;;;;;0.00;0.00;;;19.50;61.20;;;;;;4957175;28;20117;-71
2022/04/21 12:49:54;;;;;;;0.00;0.00;;;19.50;61.60;;;;;;4952215;28;20027;-73
2022/04/21 12:52:41;;;;;;;0.00;0.00;;;19.40;61.40;;;;;;4959155;28;20035;-76
2022/04/21 12:55:13;;;;;;;0.00;0.00;;;19.40;61.10;;;;;;4949125;28;20027;-74
2022/04/21 12:57:39;;;;;;;0.00;0.00;;;19.30;60.10;;;;;;4960341;28;20086;-71
2022/04/21 13:00:10;;;;;;;0.00;0.00;;;19.30;60.20;;;;;;4961465;28;20024;-71
2022/04/21 13:02:36;;;;;;;0.00;0.00;;;19.30;59.70;;;;;;4949721;28;20055;-75
2022/04/21 13:05:03;;;;;;;0.00;0.00;;;20.80;58.20;;;;;;4947462;28;20034;-71
2022/04/21 13:07:29;;;;;;;0.00;0.00;;;21.70;56.80;;;;;;4957662;28;20027;-72
2022/04/21 13:09:55;;;;;;;0.00;0.00;;;21.00;56.60;;;;;;4942341;28;20059;-72
2022/04/21 13:12:21;;;;;;;0.00;0.00;;;20.30;57.60;;;;;;4943642;28;20066;-75
2022/04/21 13:14:46;;;;;;;0.00;0.00;;;20.10;58.30;;;;;;4948133;29;20383;-74
2022/04/21 13:17:12;;;;;;;0.00;0.00;;;20.30;57.70;;;;;;4945585;29;20502;-73
2022/04/21 13:19:38;;;;;;;0.00;0.00;;;20.10;57.90;;;;;;4946639;28;20094;-73
2022/04/21 13:22:04;;;;;;;0.00;0.00;;;19.90;58.90;;;;;;4953311;28;20367;-73
2022/04/21 13:24:30;;;;;;;0.00;0.00;;;20.30;60.00;;;;;;4948835;28;20036;-72
2022/04/21 13:26:57;;;;;;;0.00;0.00;;;22.20;57.00;;;;;;4944803;28;20490;-73
2022/04/21 13:29:23;;;;;;;0.10;0.10;;;23.10;54.70;;;;;;4946539;29;20499;-74
2022/04/21 13:34:35;;;;;;;0.00;0.00;;;21.00;55.40;;;;;;4950008;28;20090;-72
2022/04/21 13:37:02;;;;;;;0.00;0.00;;;21.10;56.30;;;;;;4943005;28;20031;-72
2022/04/21 13:39:29;;;;;;;0.00;0.00;;;22.70;53.90;;;;;;4950100;29;20503;-72
2022/04/21 13:41:55;;;;;;;0.00;0.00;;;22.60;53.30;;;;;;4953211;28;20140;-69
2022/04/21 13:44:20;;;;;;;0.00;0.00;;;21.80;53.50;;;;;;4951968;28;20107;-71
2022/04/21 13:46:46;;;;;;;0.00;0.00;;;20.90;54.40;;;;;;4944920;29;20067;-71
2022/04/21 13:49:12;;;;;;;0.00;0.00;;;20.20;55.70;;;;;;4950546;28;20106;-72
2022/04/21 13:51:38;;;;;;;0.00;0.00;;;19.80;56.60;;;;;;4944704;29;20060;-72
2022/04/21 13:54:04;;;;;;;0.00;0.00;;;20.00;57.00;;;;;;4949693;28;20107;-74
2022/04/21 13:56:30;;;;;;;0.00;0.00;;;21.60;55.00;;;;;;4944009;28;20035;-76